Holden, MO

8:53 AM CDT on July 04, 2015 (GMT -0500)
Chilhowee MO US | | Change Station
CLOSE
Current Station
Personal Weather Station
Location: Chilhowee, MO
Elevation: 894 ft
Nearby Weather Stations
Active Advisory: Flood Warning

Elev 894 ft 38.60 °N, 93.85 °W | Updated 4 minutes ago

Clear
Clear
69.4 °F
Feels Like 69.4 °F
N
0.0
Wind Variable Wind from NE
Gusts 0.0 mph

Today
High -- | Low -- °F
--% Chance of Precip.
Yesterday
High -- | Low -- °F
Precip. -- in
5:56 AM 8:44 PM
Waning Gibbous, 92% visible
Pressure 30.02 in
Visibility 10.0 miles
Clouds Clear
Dew Point 65 °F
Humidity 86%
Rainfall 0.00 in
Snow Depth Not available.
UV 3 out of 12
Pollen 3.40 out of 12
Air Quality Not available.
Flu Activity Not available.
METAR KRCM 041335Z AUTO 00000KT 10SM CLR 20/17 A3002 RMK AO2

More Conditions Fewer Conditions

Pressure 30.02 in
Visibility 10.0 miles
Clouds Clear
Dew Point 65 °F
Humidity 86%
Rainfall 0.00 in
Snow Depth Not available.
UV 3 out of 12
Pollen 3.40 out of 12
Air Quality Not available.
Flu Activity Not available.
METAR KRCM 041335Z AUTO 00000KT 10SM CLR 20/17 A3002 RMK AO2

More Conditions Fewer Conditions

10-Day Weather Forecast

×

Almanac

Astronomy

Jul. 04, 2015 Rise Set
Actual Time
Civil Twilight
Nautical Twilight
Astronomical Twilight
Moon
Length of Visible Light
Length of Day
Tomorrow will be .
, % of the Moon is Illuminated

Today's Extremes

State Highs State Lows

Community

WunderPhotos

Upload Photos

1,834,965 photos uploaded!

WunderBlogs® & News

Nearby

Air Quality

  Air Quality AQ Index Pollutant
Not available.

Snow Depth

Station Depth Elevation

Earthquake Activity

City Distance Mag. Time & Date
Minimum magnitude displayed is 2.5.

Coastal Water Temperatures

Place Temperature

Stations

Nearby Weather Stations

Station Location Temp. Windchill Dew Point Humidity Wind Precip. Elev Updated Type
                   
Flood Warning
Statement as of 1:46 AM CDT on July 04, 2015

The Flood Warning continues for
the Big Creek at Blairstown.
* Until Sunday morning.
* At 1:00 am Saturday the stage was 20.7 feet.
* Flood stage is 20.0 feet.
* Minor flooding is occurring and minor flooding is forecast.
* Forecast... the river will continue to fall to below flood stage by
late this morning.
* At 20.0 feet... the West Bank of the creek begins to flood.

                       Latest
location fs stage day/time forecast

Big Creek
Blairstown 20 20.7 Sat 01 am 20.4 this morning


lat... Lon 3873 9422 3875 9416 3857 9394 3840 9384 3840 9391